sensor_id;sensor_type;location;lat;lon;timestamp;P1;durP1;ratioP1;P2;durP2;ratioP2
64011;SDS011;50211;52.768;12.124;2022-09-29T00:02:02;6.70;;;3.60;;
64011;SDS011;50211;52.768;12.124;2022-09-29T00:04:28;4.70;;;3.67;;
64011;SDS011;50211;52.768;12.124;2022-09-29T00:06:53;4.50;;;3.00;;
64011;SDS011;50211;52.768;12.124;2022-09-29T00:09:21;5.53;;;3.40;;
64011;SDS011;50211;52.768;12.124;2022-09-29T00:11:47;3.43;;;2.63;;
64011;SDS011;50211;52.768;12.124;2022-09-29T00:14:12;5.60;;;3.13;;
64011;SDS011;50211;52.768;12.124;2022-09-29T00:16:37;4.67;;;3.37;;
64011;SDS011;50211;52.768;12.124;2022-09-29T00:19:04;4.63;;;3.27;;
64011;SDS011;50211;52.768;12.124;2022-09-29T00:21:29;4.37;;;3.20;;
64011;SDS011;50211;52.768;12.124;2022-09-29T00:23:55;4.33;;;3.07;;
64011;SDS011;50211;52.768;12.124;2022-09-29T00:26:21;5.93;;;3.87;;
64011;SDS011;50211;52.768;12.124;2022-09-29T00:31:17;8.27;;;4.37;;
64011;SDS011;50211;52.768;12.124;2022-09-29T00:33:43;8.23;;;4.10;;
64011;SDS011;50211;52.768;12.124;2022-09-29T00:36:12;7.47;;;3.87;;
64011;SDS011;50211;52.768;12.124;2022-09-29T00:38:40;7.40;;;4.50;;
64011;SDS011;50211;52.768;12.124;2022-09-29T00:41:12;8.57;;;5.30;;
64011;SDS011;50211;52.768;12.124;2022-09-29T00:43:46;7.80;;;4.77;;
64011;SDS011;50211;52.768;12.124;2022-09-29T00:46:20;7.17;;;5.00;;
64011;SDS011;50211;52.768;12.124;2022-09-29T00:48:57;6.97;;;4.80;;
64011;SDS011;50211;52.768;12.124;2022-09-29T00:51:26;10.40;;;5.83;;
64011;SDS011;50211;52.768;12.124;2022-09-29T00:53:59;7.33;;;4.97;;
64011;SDS011;50211;52.768;12.124;2022-09-29T00:56:27;12.33;;;5.20;;
64011;SDS011;50211;52.768;12.124;2022-09-29T00:58:55;8.03;;;4.53;;
64011;SDS011;50211;52.768;12.124;2022-09-29T01:01:27;9.13;;;5.67;;
64011;SDS011;50211;52.768;12.124;2022-09-29T01:03:56;8.77;;;5.37;;
64011;SDS011;50211;52.768;12.124;2022-09-29T01:06:30;6.53;;;4.47;;
64011;SDS011;50211;52.768;12.124;2022-09-29T01:09:06;7.30;;;4.70;;
64011;SDS011;50211;52.768;12.124;2022-09-29T01:11:35;7.47;;;4.50;;
64011;SDS011;50211;52.768;12.124;2022-09-29T01:14:04;7.97;;;4.37;;
64011;SDS011;50211;52.768;12.124;2022-09-29T01:16:34;12.10;;;4.37;;
64011;SDS011;50211;52.768;12.124;2022-09-29T01:19:05;7.77;;;4.57;;
64011;SDS011;50211;52.768;12.124;2022-09-29T01:21:36;7.37;;;3.90;;
64011;SDS011;50211;52.768;12.124;2022-09-29T01:27:35;7.93;;;4.10;;
64011;SDS011;50211;52.768;12.124;2022-09-29T01:30:17;9.60;;;4.20;;
64011;SDS011;50211;52.768;12.124;2022-09-29T01:35:25;7.80;;;5.17;;
64011;SDS011;50211;52.768;12.124;2022-09-29T01:38:08;8.70;;;5.50;;
64011;SDS011;50211;52.768;12.124;2022-09-29T01:40:42;7.17;;;4.83;;
64011;SDS011;50211;52.768;12.124;2022-09-29T01:43:26;8.93;;;4.93;;
64011;SDS011;50211;52.768;12.124;2022-09-29T01:46:01;9.33;;;4.53;;
64011;SDS011;50211;52.768;12.124;2022-09-29T01:48:30;8.30;;;5.00;;
64011;SDS011;50211;52.768;12.124;2022-09-29T01:51:02;8.57;;;4.90;;
64011;SDS011;50211;52.768;12.124;2022-09-29T01:53:35;6.70;;;4.60;;
64011;SDS011;50211;52.768;12.124;2022-09-29T01:56:08;8.27;;;5.03;;
64011;SDS011;50211;52.768;12.124;2022-09-29T01:58:46;7.37;;;4.40;;
64011;SDS011;50211;52.768;12.124;2022-09-29T02:01:18;8.30;;;5.00;;
64011;SDS011;50211;52.768;12.124;2022-09-29T02:03:55;9.47;;;4.97;;
64011;SDS011;50211;52.768;12.124;2022-09-29T02:06:27;8.60;;;5.27;;
64011;SDS011;50211;52.768;12.124;2022-09-29T02:09:00;9.23;;;5.20;;
64011;SDS011;50211;52.768;12.124;2022-09-29T02:11:28;9.40;;;5.37;;
64011;SDS011;50211;52.768;12.124;2022-09-29T02:16:31;10.00;;;5.60;;
64011;SDS011;50211;52.768;12.124;2022-09-29T02:19:09;9.80;;;5.63;;
64011;SDS011;50211;52.768;12.124;2022-09-29T02:21:41;11.00;;;5.63;;
64011;SDS011;50211;52.768;12.124;2022-09-29T02:24:07;9.07;;;5.20;;
64011;SDS011;50211;52.768;12.124;2022-09-29T02:26:36;7.77;;;4.40;;
64011;SDS011;50211;52.768;12.124;2022-09-29T02:29:03;6.67;;;4.37;;
64011;SDS011;50211;52.768;12.124;2022-09-29T02:31:30;7.57;;;4.50;;
64011;SDS011;50211;52.768;12.124;2022-09-29T02:33:57;9.10;;;4.43;;
64011;SDS011;50211;52.768;12.124;2022-09-29T02:36:38;8.83;;;4.53;;
64011;SDS011;50211;52.768;12.124;2022-09-29T02:39:23;7.40;;;4.30;;
64011;SDS011;50211;52.768;12.124;2022-09-29T02:44:44;7.37;;;4.03;;
64011;SDS011;50211;52.768;12.124;2022-09-29T02:47:47;6.33;;;3.50;;
64011;SDS011;50211;52.768;12.124;2022-09-29T02:50:35;7.13;;;3.77;;
64011;SDS011;50211;52.768;12.124;2022-09-29T02:53:24;8.37;;;4.27;;
64011;SDS011;50211;52.768;12.124;2022-09-29T02:59:06;7.00;;;4.00;;
64011;SDS011;50211;52.768;12.124;2022-09-29T03:01:39;8.27;;;3.83;;
64011;SDS011;50211;52.768;12.124;2022-09-29T03:04:15;7.20;;;3.10;;
64011;SDS011;50211;52.768;12.124;2022-09-29T03:06:43;3.90;;;2.80;;
64011;SDS011;50211;52.768;12.124;2022-09-29T03:09:11;5.60;;;3.30;;
64011;SDS011;50211;52.768;12.124;2022-09-29T03:11:37;6.97;;;3.90;;
64011;SDS011;50211;52.768;12.124;2022-09-29T03:14:02;7.53;;;4.47;;
64011;SDS011;50211;52.768;12.124;2022-09-29T03:16:28;7.30;;;4.67;;
64011;SDS011;50211;52.768;12.124;2022-09-29T03:18:53;6.30;;;3.97;;
64011;SDS011;50211;52.768;12.124;2022-09-29T03:21:20;7.13;;;4.23;;
64011;SDS011;50211;52.768;12.124;2022-09-29T03:23:46;6.47;;;4.03;;
64011;SDS011;50211;52.768;12.124;2022-09-29T03:26:11;6.47;;;4.00;;
64011;SDS011;50211;52.768;12.124;2022-09-29T03:28:37;6.13;;;3.50;;
64011;SDS011;50211;52.768;12.124;2022-09-29T03:31:05;6.37;;;3.77;;
64011;SDS011;50211;52.768;12.124;2022-09-29T03:33:33;9.67;;;4.60;;
64011;SDS011;50211;52.768;12.124;2022-09-29T03:36:03;5.33;;;3.47;;
64011;SDS011;50211;52.768;12.124;2022-09-29T03:38:31;5.57;;;3.10;;
64011;SDS011;50211;52.768;12.124;2022-09-29T03:40:57;7.03;;;2.27;;
64011;SDS011;50211;52.768;12.124;2022-09-29T03:43:25;2.90;;;2.20;;
64011;SDS011;50211;52.768;12.124;2022-09-29T03:45:51;3.73;;;2.67;;
64011;SDS011;50211;52.768;12.124;2022-09-29T03:48:18;5.37;;;2.93;;
64011;SDS011;50211;52.768;12.124;2022-09-29T03:50:45;4.43;;;2.43;;
64011;SDS011;50211;52.768;12.124;2022-09-29T03:53:11;6.00;;;2.57;;
64011;SDS011;50211;52.768;12.124;2022-09-29T03:55:38;4.23;;;2.90;;
64011;SDS011;50211;52.768;12.124;2022-09-29T03:58:04;5.97;;;2.70;;
64011;SDS011;50211;52.768;12.124;2022-09-29T04:00:30;4.80;;;3.07;;
64011;SDS011;50211;52.768;12.124;2022-09-29T04:02:56;5.03;;;3.23;;
64011;SDS011;50211;52.768;12.124;2022-09-29T04:05:24;5.80;;;3.40;;
64011;SDS011;50211;52.768;12.124;2022-09-29T04:07:52;4.47;;;3.07;;
64011;SDS011;50211;52.768;12.124;2022-09-29T04:10:20;7.07;;;4.07;;
64011;SDS011;50211;52.768;12.124;2022-09-29T04:12:45;6.03;;;3.83;;
64011;SDS011;50211;52.768;12.124;2022-09-29T04:15:13;7.90;;;3.50;;
64011;SDS011;50211;52.768;12.124;2022-09-29T04:17:39;5.97;;;3.40;;
64011;SDS011;50211;52.768;12.124;2022-09-29T04:20:04;6.57;;;3.63;;
64011;SDS011;50211;52.768;12.124;2022-09-29T04:22:31;5.33;;;2.87;;
64011;SDS011;50211;52.768;12.124;2022-09-29T04:24:57;5.93;;;3.37;;
64011;SDS011;50211;52.768;12.124;2022-09-29T04:27:24;6.00;;;3.00;;
64011;SDS011;50211;52.768;12.124;2022-09-29T04:29:52;5.80;;;3.40;;
64011;SDS011;50211;52.768;12.124;2022-09-29T04:32:20;5.93;;;3.40;;
64011;SDS011;50211;52.768;12.124;2022-09-29T04:34:48;5.90;;;3.50;;
64011;SDS011;50211;52.768;12.124;2022-09-29T04:37:14;4.63;;;2.70;;
64011;SDS011;50211;52.768;12.124;2022-09-29T04:39:41;3.60;;;2.50;;
64011;SDS011;50211;52.768;12.124;2022-09-29T04:42:07;3.30;;;2.47;;
64011;SDS011;50211;52.768;12.124;2022-09-29T04:44:32;4.73;;;2.43;;
64011;SDS011;50211;52.768;12.124;2022-09-29T04:47:00;2.90;;;2.33;;
64011;SDS011;50211;52.768;12.124;2022-09-29T04:49:28;2.73;;;2.03;;
64011;SDS011;50211;52.768;12.124;2022-09-29T04:51:54;4.80;;;2.83;;
64011;SDS011;50211;52.768;12.124;2022-09-29T04:54:21;4.13;;;2.70;;
64011;SDS011;50211;52.768;12.124;2022-09-29T04:56:50;2.80;;;1.70;;
64011;SDS011;50211;52.768;12.124;2022-09-29T04:59:16;6.10;;;2.10;;
64011;SDS011;50211;52.768;12.124;2022-09-29T05:01:42;2.00;;;1.60;;
64011;SDS011;50211;52.768;12.124;2022-09-29T05:04:07;15.37;;;2.00;;
64011;SDS011;50211;52.768;12.124;2022-09-29T05:06:34;7.87;;;1.80;;
64011;SDS011;50211;52.768;12.124;2022-09-29T05:09:03;4.53;;;1.60;;
64011;SDS011;50211;52.768;12.124;2022-09-29T05:11:29;2.43;;;1.43;;
64011;SDS011;50211;52.768;12.124;2022-09-29T05:13:54;2.77;;;1.70;;
64011;SDS011;50211;52.768;12.124;2022-09-29T05:16:20;2.30;;;1.60;;
64011;SDS011;50211;52.768;12.124;2022-09-29T05:18:46;3.30;;;1.70;;
64011;SDS011;50211;52.768;12.124;2022-09-29T05:21:11;2.47;;;1.70;;
64011;SDS011;50211;52.768;12.124;2022-09-29T05:23:39;2.83;;;1.60;;
64011;SDS011;50211;52.768;12.124;2022-09-29T05:26:06;2.60;;;1.63;;
64011;SDS011;50211;52.768;12.124;2022-09-29T05:28:33;2.37;;;1.57;;
64011;SDS011;50211;52.768;12.124;2022-09-29T05:31:02;2.43;;;1.53;;
64011;SDS011;50211;52.768;12.124;2022-09-29T05:33:32;2.03;;;1.43;;
64011;SDS011;50211;52.768;12.124;2022-09-29T05:35:59;4.33;;;1.43;;
64011;SDS011;50211;52.768;12.124;2022-09-29T05:38:25;2.30;;;1.60;;
64011;SDS011;50211;52.768;12.124;2022-09-29T05:40:51;3.03;;;2.03;;
64011;SDS011;50211;52.768;12.124;2022-09-29T05:43:17;5.97;;;2.03;;
64011;SDS011;50211;52.768;12.124;2022-09-29T05:45:43;6.10;;;1.80;;
64011;SDS011;50211;52.768;12.124;2022-09-29T05:48:11;2.77;;;1.87;;
64011;SDS011;50211;52.768;12.124;2022-09-29T05:50:37;2.83;;;1.60;;
64011;SDS011;50211;52.768;12.124;2022-09-29T05:53:06;2.43;;;1.67;;
64011;SDS011;50211;52.768;12.124;2022-09-29T05:55:32;2.60;;;1.63;;
64011;SDS011;50211;52.768;12.124;2022-09-29T05:58:00;2.87;;;1.97;;
64011;SDS011;50211;52.768;12.124;2022-09-29T06:00:28;14.20;;;2.63;;
64011;SDS011;50211;52.768;12.124;2022-09-29T06:02:56;5.30;;;2.57;;
64011;SDS011;50211;52.768;12.124;2022-09-29T06:05:22;4.13;;;2.43;;
64011;SDS011;50211;52.768;12.124;2022-09-29T06:07:50;5.37;;;2.70;;
64011;SDS011;50211;52.768;12.124;2022-09-29T06:10:16;5.63;;;2.60;;
64011;SDS011;50211;52.768;12.124;2022-09-29T06:12:42;5.33;;;2.37;;
64011;SDS011;50211;52.768;12.124;2022-09-29T06:15:10;5.37;;;2.73;;
64011;SDS011;50211;52.768;12.124;2022-09-29T06:17:36;4.70;;;2.53;;
64011;SDS011;50211;52.768;12.124;2022-09-29T06:20:02;4.93;;;2.00;;
64011;SDS011;50211;52.768;12.124;2022-09-29T06:22:29;3.37;;;2.33;;
64011;SDS011;50211;52.768;12.124;2022-09-29T06:24:57;4.53;;;2.63;;
64011;SDS011;50211;52.768;12.124;2022-09-29T06:27:23;4.27;;;2.93;;
64011;SDS011;50211;52.768;12.124;2022-09-29T06:29:49;4.47;;;2.93;;
64011;SDS011;50211;52.768;12.124;2022-09-29T06:32:17;5.50;;;3.00;;
64011;SDS011;50211;52.768;12.124;2022-09-29T06:34:42;4.37;;;2.40;;
64011;SDS011;50211;52.768;12.124;2022-09-29T06:37:26;4.37;;;2.83;;
64011;SDS011;50211;52.768;12.124;2022-09-29T06:40:03;5.17;;;2.57;;
64011;SDS011;50211;52.768;12.124;2022-09-29T06:42:32;6.93;;;2.97;;
64011;SDS011;50211;52.768;12.124;2022-09-29T06:44:59;4.37;;;2.60;;
64011;SDS011;50211;52.768;12.124;2022-09-29T06:47:27;5.80;;;3.53;;
64011;SDS011;50211;52.768;12.124;2022-09-29T06:49:55;7.73;;;4.07;;
64011;SDS011;50211;52.768;12.124;2022-09-29T06:52:23;8.50;;;3.77;;
64011;SDS011;50211;52.768;12.124;2022-09-29T06:54:49;9.43;;;5.17;;
64011;SDS011;50211;52.768;12.124;2022-09-29T06:57:17;13.90;;;6.47;;
64011;SDS011;50211;52.768;12.124;2022-09-29T06:59:45;12.83;;;7.03;;
64011;SDS011;50211;52.768;12.124;2022-09-29T07:02:10;14.10;;;7.53;;
64011;SDS011;50211;52.768;12.124;2022-09-29T07:04:36;14.00;;;7.43;;
64011;SDS011;50211;52.768;12.124;2022-09-29T07:07:01;18.13;;;8.50;;
64011;SDS011;50211;52.768;12.124;2022-09-29T07:09:27;15.60;;;7.87;;
64011;SDS011;50211;52.768;12.124;2022-09-29T07:11:52;17.67;;;7.90;;
64011;SDS011;50211;52.768;12.124;2022-09-29T07:14:19;16.03;;;8.03;;
64011;SDS011;50211;52.768;12.124;2022-09-29T07:16:46;15.50;;;8.10;;
64011;SDS011;50211;52.768;12.124;2022-09-29T07:19:12;17.63;;;8.30;;
64011;SDS011;50211;52.768;12.124;2022-09-29T07:21:38;14.23;;;7.68;;
64011;SDS011;50211;52.768;12.124;2022-09-29T07:24:03;19.50;;;8.27;;
64011;SDS011;50211;52.768;12.124;2022-09-29T07:26:29;15.60;;;7.78;;
64011;SDS011;50211;52.768;12.124;2022-09-29T07:28:54;13.43;;;8.25;;
64011;SDS011;50211;52.768;12.124;2022-09-29T07:31:20;12.20;;;7.33;;
64011;SDS011;50211;52.768;12.124;2022-09-29T07:33:46;14.48;;;7.40;;
64011;SDS011;50211;52.768;12.124;2022-09-29T07:36:13;14.25;;;7.82;;
64011;SDS011;50211;52.768;12.124;2022-09-29T07:38:40;16.08;;;8.35;;
64011;SDS011;50211;52.768;12.124;2022-09-29T07:41:09;13.57;;;7.28;;
64011;SDS011;50211;52.768;12.124;2022-09-29T07:43:36;18.85;;;8.23;;
64011;SDS011;50211;52.768;12.124;2022-09-29T07:46:02;13.88;;;7.13;;
64011;SDS011;50211;52.768;12.124;2022-09-29T07:48:28;12.45;;;6.65;;
64011;SDS011;50211;52.768;12.124;2022-09-29T07:51:05;15.93;;;8.77;;
64011;SDS011;50211;52.768;12.124;2022-09-29T07:53:37;16.58;;;7.68;;
64011;SDS011;50211;52.768;12.124;2022-09-29T07:56:10;13.00;;;6.57;;
64011;SDS011;50211;52.768;12.124;2022-09-29T07:58:37;16.20;;;7.53;;
64011;SDS011;50211;52.768;12.124;2022-09-29T08:01:03;13.65;;;6.97;;
64011;SDS011;50211;52.768;12.124;2022-09-29T08:03:34;12.45;;;6.47;;
64011;SDS011;50211;52.768;12.124;2022-09-29T08:06:00;14.23;;;7.13;;
64011;SDS011;50211;52.768;12.124;2022-09-29T08:08:25;12.80;;;6.78;;
64011;SDS011;50211;52.768;12.124;2022-09-29T08:10:51;12.68;;;7.13;;
64011;SDS011;50211;52.768;12.124;2022-09-29T08:13:17;13.82;;;7.28;;
64011;SDS011;50211;52.768;12.124;2022-09-29T08:15:42;13.55;;;7.57;;
64011;SDS011;50211;52.768;12.124;2022-09-29T08:18:08;12.18;;;7.15;;
64011;SDS011;50211;52.768;12.124;2022-09-29T08:20:36;14.05;;;7.40;;
64011;SDS011;50211;52.768;12.124;2022-09-29T08:23:04;10.93;;;7.30;;
64011;SDS011;50211;52.768;12.124;2022-09-29T08:25:30;14.07;;;7.18;;
64011;SDS011;50211;52.768;12.124;2022-09-29T08:27:56;12.98;;;7.40;;
64011;SDS011;50211;52.768;12.124;2022-09-29T08:30:22;10.80;;;6.68;;
64011;SDS011;50211;52.768;12.124;2022-09-29T08:32:51;15.27;;;8.32;;
64011;SDS011;50211;52.768;12.124;2022-09-29T08:35:17;11.02;;;6.93;;
64011;SDS011;50211;52.768;12.124;2022-09-29T08:37:45;11.27;;;6.53;;
64011;SDS011;50211;52.768;12.124;2022-09-29T08:40:10;10.68;;;6.45;;
64011;SDS011;50211;52.768;12.124;2022-09-29T08:45:25;16.30;;;7.53;;
64011;SDS011;50211;52.768;12.124;2022-09-29T08:48:05;17.35;;;8.10;;
64011;SDS011;50211;52.768;12.124;2022-09-29T08:50:39;13.20;;;7.72;;
64011;SDS011;50211;52.768;12.124;2022-09-29T08:53:09;12.90;;;7.10;;
64011;SDS011;50211;52.768;12.124;2022-09-29T08:55:51;14.90;;;7.15;;
64011;SDS011;50211;52.768;12.124;2022-09-29T08:58:31;17.27;;;7.78;;
64011;SDS011;50211;52.768;12.124;2022-09-29T09:07:08;15.68;;;8.80;;
64011;SDS011;50211;52.768;12.124;2022-09-29T09:09:53;10.07;;;6.07;;
64011;SDS011;50211;52.768;12.124;2022-09-29T09:18:13;11.55;;;6.45;;
64011;SDS011;50211;52.768;12.124;2022-09-29T09:23:43;16.05;;;7.03;;
64011;SDS011;50211;52.768;12.124;2022-09-29T09:26:20;14.25;;;6.45;;
64011;SDS011;50211;52.768;12.124;2022-09-29T09:28:54;10.90;;;6.30;;
64011;SDS011;50211;52.768;12.124;2022-09-29T09:34:20;10.68;;;6.13;;
64011;SDS011;50211;52.768;12.124;2022-09-29T09:37:10;13.68;;;7.22;;
64011;SDS011;50211;52.768;12.124;2022-09-29T09:42:30;11.88;;;6.50;;
64011;SDS011;50211;52.768;12.124;2022-09-29T09:45:03;9.95;;;5.95;;
64011;SDS011;50211;52.768;12.124;2022-09-29T09:47:37;11.82;;;6.35;;
64011;SDS011;50211;52.768;12.124;2022-09-29T09:50:13;7.63;;;5.00;;
64011;SDS011;50211;52.768;12.124;2022-09-29T09:52:43;11.55;;;6.60;;
64011;SDS011;50211;52.768;12.124;2022-09-29T09:55:16;10.23;;;5.90;;
64011;SDS011;50211;52.768;12.124;2022-09-29T10:01:04;10.15;;;5.80;;
64011;SDS011;50211;52.768;12.124;2022-09-29T10:03:35;14.27;;;5.75;;
64011;SDS011;50211;52.768;12.124;2022-09-29T10:06:02;10.95;;;6.05;;
64011;SDS011;50211;52.768;12.124;2022-09-29T10:08:32;10.98;;;6.03;;
64011;SDS011;50211;52.768;12.124;2022-09-29T10:11:11;10.02;;;5.70;;
64011;SDS011;50211;52.768;12.124;2022-09-29T10:13:41;8.18;;;4.75;;
64011;SDS011;50211;52.768;12.124;2022-09-29T10:16:11;12.93;;;4.97;;
64011;SDS011;50211;52.768;12.124;2022-09-29T10:18:45;7.10;;;4.50;;
64011;SDS011;50211;52.768;12.124;2022-09-29T10:21:19;13.32;;;5.65;;
64011;SDS011;50211;52.768;12.124;2022-09-29T10:23:57;9.15;;;5.45;;
64011;SDS011;50211;52.768;12.124;2022-09-29T10:26:26;10.60;;;5.35;;
64011;SDS011;50211;52.768;12.124;2022-09-29T10:32:14;10.38;;;5.15;;
64011;SDS011;50211;52.768;12.124;2022-09-29T10:34:47;8.75;;;5.32;;
64011;SDS011;50211;52.768;12.124;2022-09-29T10:37:20;8.55;;;5.20;;
64011;SDS011;50211;52.768;12.124;2022-09-29T10:39:48;7.32;;;4.22;;
64011;SDS011;50211;52.768;12.124;2022-09-29T10:42:22;7.45;;;4.10;;
64011;SDS011;50211;52.768;12.124;2022-09-29T10:44:51;6.68;;;5.05;;
64011;SDS011;50211;52.768;12.124;2022-09-29T10:47:36;7.40;;;4.28;;
64011;SDS011;50211;52.768;12.124;2022-09-29T10:53:05;7.47;;;4.38;;
64011;SDS011;50211;52.768;12.124;2022-09-29T10:55:50;5.45;;;3.85;;
64011;SDS011;50211;52.768;12.124;2022-09-29T10:58:25;8.25;;;4.10;;
64011;SDS011;50211;52.768;12.124;2022-09-29T11:01:08;8.95;;;4.40;;
64011;SDS011;50211;52.768;12.124;2022-09-29T11:03:39;7.70;;;4.10;;
64011;SDS011;50211;52.768;12.124;2022-09-29T11:06:30;6.05;;;4.07;;
64011;SDS011;50211;52.768;12.124;2022-09-29T11:09:06;11.52;;;7.03;;
64011;SDS011;50211;52.768;12.124;2022-09-29T11:11:53;8.70;;;3.72;;
64011;SDS011;50211;52.768;12.124;2022-09-29T11:14:23;17.42;;;9.30;;
64011;SDS011;50211;52.768;12.124;2022-09-29T11:17:01;9.70;;;6.32;;
64011;SDS011;50211;52.768;12.124;2022-09-29T11:19:43;11.63;;;5.93;;
64011;SDS011;50211;52.768;12.124;2022-09-29T11:31:00;11.07;;;5.80;;
64011;SDS011;50211;52.768;12.124;2022-09-29T11:33:46;8.15;;;3.75;;
64011;SDS011;50211;52.768;12.124;2022-09-29T11:52:20;9.63;;;4.30;;
64011;SDS011;50211;52.768;12.124;2022-09-29T11:58:00;5.78;;;3.90;;
64011;SDS011;50211;52.768;12.124;2022-09-29T12:01:07;11.80;;;5.72;;
64011;SDS011;50211;52.768;12.124;2022-09-29T12:06:42;10.10;;;4.72;;
64011;SDS011;50211;52.768;12.124;2022-09-29T12:09:32;5.97;;;3.80;;
64011;SDS011;50211;52.768;12.124;2022-09-29T12:17:22;8.40;;;4.35;;
64011;SDS011;50211;52.768;12.124;2022-09-29T12:19:57;9.10;;;5.07;;
64011;SDS011;50211;52.768;12.124;2022-09-29T12:22:48;10.68;;;5.78;;
64011;SDS011;50211;52.768;12.124;2022-09-29T12:25:16;7.00;;;4.40;;
64011;SDS011;50211;52.768;12.124;2022-09-29T12:27:46;16.73;;;7.80;;
64011;SDS011;50211;52.768;12.124;2022-09-29T12:30:20;13.38;;;6.70;;
64011;SDS011;50211;52.768;12.124;2022-09-29T12:33:00;8.60;;;4.85;;
64011;SDS011;50211;52.768;12.124;2022-09-29T12:35:38;11.25;;;4.97;;
64011;SDS011;50211;52.768;12.124;2022-09-29T12:38:27;14.63;;;7.75;;
64011;SDS011;50211;52.768;12.124;2022-09-29T12:41:10;8.07;;;5.00;;
64011;SDS011;50211;52.768;12.124;2022-09-29T12:43:44;7.68;;;5.20;;
64011;SDS011;50211;52.768;12.124;2022-09-29T12:47:15;12.48;;;7.25;;
64011;SDS011;50211;52.768;12.124;2022-09-29T12:51:55;25.60;;;13.02;;
64011;SDS011;50211;52.768;12.124;2022-09-29T12:54:26;8.50;;;5.55;;
64011;SDS011;50211;52.768;12.124;2022-09-29T12:57:03;6.78;;;4.75;;
64011;SDS011;50211;52.768;12.124;2022-09-29T12:59:55;30.40;;;16.95;;
64011;SDS011;50211;52.768;12.124;2022-09-29T13:05:19;7.25;;;5.13;;
64011;SDS011;50211;52.768;12.124;2022-09-29T13:08:24;8.85;;;5.15;;
64011;SDS011;50211;52.768;12.124;2022-09-29T13:11:10;7.82;;;5.55;;
64011;SDS011;50211;52.768;12.124;2022-09-29T13:16:55;7.90;;;4.00;;
64011;SDS011;50211;52.768;12.124;2022-09-29T13:19:49;7.05;;;4.40;;
64011;SDS011;50211;52.768;12.124;2022-09-29T13:25:39;8.00;;;5.00;;
64011;SDS011;50211;52.768;12.124;2022-09-29T13:28:30;6.97;;;4.72;;
64011;SDS011;50211;52.768;12.124;2022-09-29T13:31:00;10.25;;;4.32;;
64011;SDS011;50211;52.768;12.124;2022-09-29T13:33:31;6.47;;;3.83;;
64011;SDS011;50211;52.768;12.124;2022-09-29T13:35:58;7.95;;;4.70;;
64011;SDS011;50211;52.768;12.124;2022-09-29T13:38:28;6.80;;;3.97;;
64011;SDS011;50211;52.768;12.124;2022-09-29T13:44:04;6.13;;;3.78;;
64011;SDS011;50211;52.768;12.124;2022-09-29T13:46:43;4.40;;;3.40;;
64011;SDS011;50211;52.768;12.124;2022-09-29T13:49:13;15.13;;;8.77;;
64011;SDS011;50211;52.768;12.124;2022-09-29T13:51:53;6.63;;;4.30;;
64011;SDS011;50211;52.768;12.124;2022-09-29T13:54:47;6.47;;;4.53;;
64011;SDS011;50211;52.768;12.124;2022-09-29T13:59:44;13.65;;;5.32;;
64011;SDS011;50211;52.768;12.124;2022-09-29T14:02:27;6.40;;;4.20;;
64011;SDS011;50211;52.768;12.124;2022-09-29T14:04:54;5.40;;;4.28;;
64011;SDS011;50211;52.768;12.124;2022-09-29T14:07:34;5.38;;;3.72;;
64011;SDS011;50211;52.768;12.124;2022-09-29T14:15:24;7.28;;;4.82;;
64011;SDS011;50211;52.768;12.124;2022-09-29T14:17:56;9.20;;;6.20;;
64011;SDS011;50211;52.768;12.124;2022-09-29T14:20:27;7.70;;;5.28;;
64011;SDS011;50211;52.768;12.124;2022-09-29T14:22:57;6.22;;;4.38;;
64011;SDS011;50211;52.768;12.124;2022-09-29T14:28:15;6.93;;;5.55;;
64011;SDS011;50211;52.768;12.124;2022-09-29T14:30:47;8.55;;;5.63;;
64011;SDS011;50211;52.768;12.124;2022-09-29T14:38:36;7.72;;;4.85;;
64011;SDS011;50211;52.768;12.124;2022-09-29T14:43:39;11.45;;;5.55;;
64011;SDS011;50211;52.768;12.124;2022-09-29T14:49:17;7.90;;;5.05;;
64011;SDS011;50211;52.768;12.124;2022-09-29T14:52:21;11.27;;;6.20;;
64011;SDS011;50211;52.768;12.124;2022-09-29T14:55:05;9.88;;;4.57;;
64011;SDS011;50211;52.768;12.124;2022-09-29T14:57:44;5.45;;;3.53;;
64011;SDS011;50211;52.768;12.124;2022-09-29T15:00:44;5.35;;;3.42;;
64011;SDS011;50211;52.768;12.124;2022-09-29T15:03:43;12.88;;;7.90;;
64011;SDS011;50211;52.768;12.124;2022-09-29T15:06:17;13.13;;;7.00;;
64011;SDS011;50211;52.768;12.124;2022-09-29T15:09:00;5.28;;;4.30;;
64011;SDS011;50211;52.768;12.124;2022-09-29T15:11:41;4.70;;;3.58;;
64011;SDS011;50211;52.768;12.124;2022-09-29T15:19:34;5.90;;;3.70;;
64011;SDS011;50211;52.768;12.124;2022-09-29T15:22:28;7.78;;;4.38;;
64011;SDS011;50211;52.768;12.124;2022-09-29T15:27:46;4.63;;;2.92;;
64011;SDS011;50211;52.768;12.124;2022-09-29T15:30:15;4.35;;;2.97;;
64011;SDS011;50211;52.768;12.124;2022-09-29T15:32:43;4.85;;;2.90;;
64011;SDS011;50211;52.768;12.124;2022-09-29T15:35:12;7.25;;;3.58;;
64011;SDS011;50211;52.768;12.124;2022-09-29T15:40:21;2.88;;;2.45;;
64011;SDS011;50211;52.768;12.124;2022-09-29T15:42:48;3.70;;;2.90;;
64011;SDS011;50211;52.768;12.124;2022-09-29T15:45:21;4.50;;;2.90;;
64011;SDS011;50211;52.768;12.124;2022-09-29T15:48:04;3.70;;;2.60;;
64011;SDS011;50211;52.768;12.124;2022-09-29T15:50:32;4.03;;;2.35;;
64011;SDS011;50211;52.768;12.124;2022-09-29T15:53:05;4.53;;;2.75;;
64011;SDS011;50211;52.768;12.124;2022-09-29T15:55:30;5.95;;;2.75;;
64011;SDS011;50211;52.768;12.124;2022-09-29T15:57:56;4.28;;;3.00;;
64011;SDS011;50211;52.768;12.124;2022-09-29T16:02:49;2.75;;;2.53;;
64011;SDS011;50211;52.768;12.124;2022-09-29T16:05:26;3.92;;;2.80;;
64011;SDS011;50211;52.768;12.124;2022-09-29T16:08:12;5.20;;;3.00;;
64011;SDS011;50211;52.768;12.124;2022-09-29T16:13:18;4.97;;;2.80;;
64011;SDS011;50211;52.768;12.124;2022-09-29T16:15:46;3.38;;;2.47;;
64011;SDS011;50211;52.768;12.124;2022-09-29T16:21:06;3.58;;;2.75;;
64011;SDS011;50211;52.768;12.124;2022-09-29T16:23:42;3.75;;;2.80;;
64011;SDS011;50211;52.768;12.124;2022-09-29T16:28:59;2.88;;;2.47;;
64011;SDS011;50211;52.768;12.124;2022-09-29T16:31:28;4.45;;;2.88;;
64011;SDS011;50211;52.768;12.124;2022-09-29T16:33:56;2.67;;;2.15;;
64011;SDS011;50211;52.768;12.124;2022-09-29T16:36:32;3.10;;;2.65;;
64011;SDS011;50211;52.768;12.124;2022-09-29T16:39:00;3.70;;;2.90;;
64011;SDS011;50211;52.768;12.124;2022-09-29T16:41:32;3.20;;;2.90;;
64011;SDS011;50211;52.768;12.124;2022-09-29T16:44:14;5.53;;;4.13;;
64011;SDS011;50211;52.768;12.124;2022-09-29T16:46:42;8.52;;;5.30;;
64011;SDS011;50211;52.768;12.124;2022-09-29T16:49:19;6.70;;;4.97;;
64011;SDS011;50211;52.768;12.124;2022-09-29T16:51:48;7.00;;;3.85;;
64011;SDS011;50211;52.768;12.124;2022-09-29T16:54:15;5.38;;;3.42;;
64011;SDS011;50211;52.768;12.124;2022-09-29T16:56:45;5.80;;;3.58;;
64011;SDS011;50211;52.768;12.124;2022-09-29T16:59:13;5.75;;;3.55;;
64011;SDS011;50211;52.768;12.124;2022-09-29T17:01:41;6.05;;;3.97;;
64011;SDS011;50211;52.768;12.124;2022-09-29T17:04:08;3.92;;;3.28;;
64011;SDS011;50211;52.768;12.124;2022-09-29T17:06:35;3.40;;;2.97;;
64011;SDS011;50211;52.768;12.124;2022-09-29T17:09:02;4.80;;;2.67;;
64011;SDS011;50211;52.768;12.124;2022-09-29T17:11:29;5.85;;;3.58;;
64011;SDS011;50211;52.768;12.124;2022-09-29T17:13:54;4.30;;;3.22;;
64011;SDS011;50211;52.768;12.124;2022-09-29T17:16:23;5.93;;;3.60;;
64011;SDS011;50211;52.768;12.124;2022-09-29T17:18:49;5.40;;;3.08;;
64011;SDS011;50211;52.768;12.124;2022-09-29T17:21:18;7.43;;;3.28;;